Argyle, Illinois
Current Conditions -  °F | °C
As of 8:54 PM on Sunday 23 Nov 2014 (Local Time) from KRFD Reporting Station
Light Rain Light Rain  
Wind Chill: 47°   Ceiling: 300
Heat Index: 49°   Visibility: 2.5mi
Dew Point: 47°   Wind: 6mph
Humidity: 93%   Direction: 100°E
Pressure: 29.23"   Gusts: NA
Location:  42.3911°N, 88.9094°W
Report Text: KRFD 240254Z 10005KT 2 1/2SM -RA BR BKN003 OVC014 09/08 A2923 RMK AO2 CIG 003V007 SLP900 P0005 60019 T00940083 56043
Loading
Personal Weather Stations






























Interactive Weather Map New forecast layout! Learn more

10-Day Weather Forecast

Advertisements
Track Severe Weather on mobile